createdAt,value
2019-01-04T00:02:06.633Z,21.87
2019-01-04T00:04:36.136Z,11.27
2019-01-04T00:07:05.968Z,12.30
2019-01-04T00:09:35.600Z,10.77
2019-01-04T00:12:05.219Z,11.80
2019-01-04T00:14:35.503Z,10.97
2019-01-04T00:17:05.092Z,8.60
2019-01-04T00:19:34.712Z,11.20
2019-01-04T00:22:04.829Z,12.40
2019-01-04T00:24:34.888Z,9.70
2019-01-04T00:27:04.728Z,10.63
2019-01-04T00:29:34.264Z,7.77
2019-01-04T00:32:04.421Z,10.93
2019-01-04T00:34:34.085Z,10.00
2019-01-04T00:37:04.300Z,7.87
2019-01-04T00:39:34.705Z,10.68
2019-01-04T00:42:04.282Z,10.10
2019-01-04T00:44:34.240Z,10.18
2019-01-04T00:47:04.128Z,10.43
2019-01-04T00:49:34.507Z,12.25
2019-01-04T00:52:07.608Z,12.95
2019-01-04T00:54:37.229Z,15.00
2019-01-04T00:57:57.554Z,17.90
2019-01-04T01:00:55.709Z,14.65
2019-01-04T01:04:08.410Z,12.07
2019-01-04T01:07:24.376Z,12.43
2019-01-04T01:10:20.171Z,12.53
2019-01-04T01:13:28.857Z,14.85
2019-01-04T01:16:30.451Z,18.13
2019-01-04T01:19:53.526Z,19.43
2019-01-04T01:23:15.417Z,18.23
2019-01-04T01:26:21.888Z,15.63
2019-01-04T01:29:34.091Z,18.07
2019-01-04T01:32:54.048Z,15.97
2019-01-04T01:35:49.053Z,17.17
2019-01-04T01:38:56.541Z,16.70
2019-01-04T01:41:54.645Z,20.33
2019-01-04T01:45:02.128Z,22.90
2019-01-04T01:47:36.240Z,17.70
2019-01-04T01:50:41.791Z,19.83
2019-01-04T01:53:11.960Z,23.20
2019-01-04T01:55:41.670Z,25.00
2019-01-04T01:58:11.301Z,20.00
2019-01-04T02:00:41.396Z,22.63
2019-01-04T02:03:11.194Z,19.87
2019-01-04T02:05:40.970Z,23.13
2019-01-04T02:08:11.124Z,21.82
2019-01-04T02:10:40.593Z,20.10
2019-01-04T02:13:10.408Z,17.45
2019-01-04T02:15:40.192Z,26.15
2019-01-04T02:18:09.849Z,23.45
2019-01-04T02:20:39.938Z,22.30
2019-01-04T02:23:09.713Z,23.75
2019-01-04T02:25:44.559Z,18.17
2019-01-04T02:28:16.454Z,24.63
2019-01-04T02:30:48.932Z,20.77
2019-01-04T02:33:20.947Z,20.77
2019-01-04T02:35:50.741Z,18.47
2019-01-04T02:38:24.097Z,18.77
2019-01-04T02:40:56.880Z,24.00
2019-01-04T02:43:27.801Z,20.10
2019-01-04T02:45:59.606Z,16.87
2019-01-04T02:48:29.179Z,19.20
2019-01-04T02:50:58.993Z,20.23
2019-01-04T02:53:29.060Z,22.40
2019-01-04T02:55:59.034Z,22.13
2019-01-04T02:58:28.537Z,23.70
2019-01-04T03:00:58.104Z,21.80
2019-01-04T03:03:27.898Z,17.30
2019-01-04T03:05:57.503Z,17.97
2019-01-04T03:08:27.034Z,15.10
2019-01-04T03:10:56.763Z,17.80
2019-01-04T03:13:26.543Z,19.20
2019-01-04T03:15:56.500Z,20.37
2019-01-04T03:18:26.692Z,25.60
2019-01-04T03:20:56.536Z,15.85
2019-01-04T03:23:26.649Z,18.67
2019-01-04T03:25:56.191Z,14.20
2019-01-04T03:28:25.979Z,14.33
2019-01-04T03:30:55.540Z,13.43
2019-01-04T03:33:25.060Z,15.60
2019-01-04T03:35:54.717Z,16.17
2019-01-04T03:38:24.508Z,15.07
2019-01-04T03:40:54.015Z,17.87
2019-01-04T03:43:23.556Z,13.77
2019-01-04T03:45:53.367Z,12.07
2019-01-04T03:48:23.158Z,17.10
2019-01-04T03:50:52.680Z,17.93
2019-01-04T03:53:23.202Z,14.57
2019-01-04T03:55:52.706Z,13.03
2019-01-04T03:58:22.498Z,17.07
2019-01-04T04:00:52.315Z,14.30
2019-01-04T04:03:22.434Z,12.33
2019-01-04T04:05:52.203Z,15.90
2019-01-04T04:08:21.697Z,11.20
2019-01-04T04:10:51.185Z,19.97
2019-01-04T04:13:21.295Z,20.23
2019-01-04T04:15:50.779Z,12.20
2019-01-04T04:18:20.257Z,9.73
2019-01-04T04:20:50.061Z,12.63
2019-01-04T04:23:19.568Z,16.07
2019-01-04T04:25:49.480Z,17.17
2019-01-04T04:28:19.557Z,21.90
2019-01-04T04:30:49.630Z,11.30
2019-01-04T04:33:19.422Z,15.97
2019-01-04T04:35:48.929Z,12.10
2019-01-04T04:38:18.819Z,13.67
2019-01-04T04:40:48.364Z,13.15
2019-01-04T04:43:17.895Z,18.87
2019-01-04T04:45:47.685Z,16.60
2019-01-04T04:48:17.781Z,10.78
2019-01-04T04:50:47.590Z,20.40
2019-01-04T04:53:17.075Z,15.27
2019-01-04T04:55:46.592Z,11.30
2019-01-04T04:58:16.388Z,10.75
2019-01-04T05:00:45.906Z,12.68
2019-01-04T05:03:15.388Z,13.03
2019-01-04T05:05:45.717Z,11.37
2019-01-04T05:08:16.288Z,12.50
2019-01-04T05:10:46.305Z,12.90
2019-01-04T05:13:16.082Z,9.07
2019-01-04T05:15:45.614Z,13.40
2019-01-04T05:18:15.704Z,13.03
2019-01-04T05:20:45.546Z,11.25
2019-01-04T05:23:15.914Z,20.23
2019-01-04T05:25:45.713Z,13.20
2019-01-04T05:28:15.524Z,13.00
2019-01-04T05:30:45.331Z,13.35
2019-01-04T05:33:14.840Z,22.70
2019-01-04T05:35:44.959Z,9.10
2019-01-04T05:38:14.754Z,19.17
2019-01-04T05:40:44.667Z,11.80
2019-01-04T05:43:14.973Z,14.50
2019-01-04T05:45:44.476Z,12.40
2019-01-04T05:48:13.979Z,15.47
2019-01-04T05:50:44.025Z,16.80
2019-01-04T05:53:14.385Z,14.85
2019-01-04T05:55:44.274Z,18.20
2019-01-04T05:58:13.776Z,21.68
2019-01-04T06:00:43.504Z,18.07
2019-01-04T06:03:13.002Z,16.57
2019-01-04T06:05:42.495Z,21.62
2019-01-04T06:08:12.251Z,16.53
2019-01-04T06:10:41.723Z,12.85
2019-01-04T06:13:11.503Z,15.08
2019-01-04T06:15:41.307Z,12.82
2019-01-04T06:18:11.166Z,19.73
2019-01-04T06:20:40.937Z,19.53
2019-01-04T06:23:10.975Z,21.80
2019-01-04T06:25:40.475Z,20.37
2019-01-04T06:28:10.254Z,39.03
2019-01-04T06:30:39.766Z,25.40
2019-01-04T06:33:09.841Z,21.47
2019-01-04T06:35:39.640Z,23.67
2019-01-04T06:38:09.410Z,20.47
2019-01-04T06:40:39.508Z,12.17
2019-01-04T06:43:09.011Z,16.97
2019-01-04T06:45:38.493Z,13.80
2019-01-04T06:48:08.299Z,36.17
2019-01-04T06:50:38.104Z,19.57
2019-01-04T06:53:07.868Z,18.70
2019-01-04T06:55:55.347Z,25.93
2019-01-04T06:58:25.243Z,17.93
2019-01-04T07:00:54.788Z,17.97
2019-01-04T07:03:24.815Z,17.00
2019-01-04T07:05:54.398Z,30.57
2019-01-04T07:08:24.496Z,18.33
2019-01-04T07:10:54.266Z,26.30
2019-01-04T07:13:24.091Z,14.17
2019-01-04T07:15:53.897Z,19.87
2019-01-04T07:18:23.704Z,16.87
2019-01-04T07:20:53.690Z,24.70
2019-01-04T07:23:24.051Z,24.50
2019-01-04T07:25:53.566Z,16.90
2019-01-04T07:28:23.295Z,17.75
2019-01-04T07:30:52.880Z,19.23
2019-01-04T07:33:22.459Z,18.93
2019-01-04T07:35:52.454Z,15.83
2019-01-04T07:38:21.932Z,17.42
2019-01-04T07:40:51.465Z,18.97
2019-01-04T07:43:21.239Z,24.77
2019-01-04T07:45:51.293Z,15.75
2019-01-04T07:48:20.787Z,17.73
2019-01-04T07:50:50.391Z,19.73
2019-01-04T07:53:20.483Z,22.67
2019-01-04T07:55:50.447Z,18.10
2019-01-04T07:58:19.963Z,14.70
2019-01-04T08:00:50.044Z,15.30
2019-01-04T08:03:24.568Z,23.27
2019-01-04T08:05:56.659Z,21.87
2019-01-04T08:08:26.413Z,14.67
2019-01-04T08:10:56.139Z,21.43
2019-01-04T08:13:25.913Z,18.50
2019-01-04T08:15:55.498Z,15.60
2019-01-04T08:18:25.052Z,19.57
2019-01-04T08:20:54.615Z,13.07
2019-01-04T08:23:24.698Z,16.77
2019-01-04T08:25:54.285Z,26.23
2019-01-04T08:28:24.332Z,13.13
2019-01-04T08:30:53.870Z,15.23
2019-01-04T08:33:23.379Z,15.57
2019-01-04T08:35:53.157Z,19.37
2019-01-04T08:38:22.945Z,17.02
2019-01-04T08:40:52.746Z,19.12
2019-01-04T08:43:22.275Z,19.63
2019-01-04T08:45:52.080Z,19.00
2019-01-04T08:48:22.136Z,26.70
2019-01-04T08:50:51.883Z,26.77
2019-01-04T08:53:51.540Z,15.57
2019-01-04T08:56:21.417Z,24.00
2019-01-04T08:58:51.599Z,21.53
2019-01-04T09:01:22.577Z,24.73
2019-01-04T09:03:52.815Z,20.17
2019-01-04T09:06:22.555Z,20.03
2019-01-04T09:08:52.356Z,20.87
2019-01-04T09:11:22.072Z,25.93
2019-01-04T09:13:51.838Z,27.13
2019-01-04T09:16:21.901Z,22.00
2019-01-04T09:18:51.649Z,22.13
2019-01-04T09:21:22.076Z,27.87
2019-01-04T09:23:52.147Z,29.37
2019-01-04T09:26:21.679Z,18.87
2019-01-04T09:28:51.454Z,27.40
2019-01-04T09:31:20.969Z,25.17
2019-01-04T09:33:50.482Z,21.63
2019-01-04T09:36:20.114Z,17.30
2019-01-04T09:38:52.972Z,19.57
2019-01-04T09:41:54.219Z,19.73
2019-01-04T09:44:24.337Z,21.52
2019-01-04T09:46:58.175Z,22.07
2019-01-04T09:49:27.780Z,18.33
2019-01-04T09:51:57.563Z,20.63
2019-01-04T09:54:27.678Z,17.93
2019-01-04T09:56:57.488Z,19.10
2019-01-04T09:59:27.010Z,20.33
2019-01-04T10:01:56.538Z,20.90
2019-01-04T10:04:26.083Z,21.17
2019-01-04T10:06:55.594Z,22.27
2019-01-04T10:09:25.403Z,18.23
2019-01-04T10:11:55.897Z,21.63
2019-01-04T10:14:25.471Z,18.93
2019-01-04T10:16:55.597Z,20.97
2019-01-04T10:19:25.276Z,21.63
2019-01-04T10:21:54.870Z,20.30
2019-01-04T10:24:24.407Z,18.55
2019-01-04T10:26:54.308Z,24.80
2019-01-04T10:29:24.531Z,26.80
2019-01-04T10:31:54.140Z,19.97
2019-01-04T10:34:25.155Z,24.10
2019-01-04T10:36:54.909Z,22.30
2019-01-04T10:39:24.443Z,21.50
2019-01-04T10:41:53.954Z,26.03
2019-01-04T10:44:23.905Z,23.76
2019-01-04T10:46:53.640Z,23.10
2019-01-04T10:49:24.742Z,19.60
2019-01-04T10:51:54.478Z,15.10
2019-01-04T10:54:24.336Z,15.60
2019-01-04T10:56:54.020Z,13.47
2019-01-04T10:59:23.762Z,14.67
2019-01-04T11:01:54.039Z,13.90
2019-01-04T11:04:23.895Z,12.17
2019-01-04T11:06:53.682Z,16.63
2019-01-04T11:09:23.229Z,10.80
2019-01-04T11:11:53.310Z,9.33
2019-01-04T11:14:23.417Z,9.17
2019-01-04T11:16:52.983Z,10.50
2019-01-04T11:19:22.818Z,14.63
2019-01-04T11:22:11.739Z,9.98
2019-01-04T11:25:34.500Z,12.60
2019-01-04T11:28:19.388Z,12.45
2019-01-04T11:31:18.270Z,14.10
2019-01-04T11:33:57.980Z,13.90
2019-01-04T11:36:55.366Z,12.27
2019-01-04T11:39:51.229Z,14.07
2019-01-04T11:42:52.154Z,12.18
2019-01-04T11:45:36.473Z,13.33
2019-01-04T11:48:13.904Z,13.57
2019-01-04T11:51:30.516Z,9.65
2019-01-04T11:54:01.888Z,8.63
2019-01-04T11:56:31.716Z,11.77
2019-01-04T11:59:01.525Z,8.63
2019-01-04T12:01:31.338Z,13.20
2019-01-04T12:04:02.177Z,12.53
2019-01-04T12:06:31.984Z,9.07
2019-01-04T12:09:01.501Z,11.10
2019-01-04T12:11:32.243Z,10.53
2019-01-04T12:14:02.124Z,12.93
2019-01-04T12:16:31.667Z,8.40
2019-01-04T12:19:01.725Z,12.97
2019-01-04T12:21:32.402Z,10.13
2019-01-04T12:24:02.571Z,10.57
2019-01-04T12:26:32.088Z,9.17
2019-01-04T12:29:01.597Z,12.20
2019-01-04T12:31:31.161Z,13.33
2019-01-04T12:34:00.895Z,11.70
2019-01-04T12:36:30.739Z,10.73
2019-01-04T12:39:00.332Z,14.00
2019-01-04T12:41:31.093Z,8.53
2019-01-04T12:44:00.896Z,8.17
2019-01-04T12:46:30.759Z,7.97
2019-01-04T12:49:00.995Z,12.80
2019-01-04T12:51:30.501Z,10.00
2019-01-04T12:54:00.625Z,11.93
2019-01-04T12:56:30.437Z,11.20
2019-01-04T12:59:00.203Z,12.23
2019-01-04T13:01:30.241Z,13.03
2019-01-04T13:04:00.246Z,12.50
2019-01-04T13:06:30.646Z,10.53
2019-01-04T13:09:00.225Z,12.57
2019-01-04T13:11:29.990Z,11.07
2019-01-04T13:14:01.831Z,12.00
2019-01-04T13:16:31.557Z,12.13
2019-01-04T13:19:01.599Z,10.63
2019-01-04T13:21:31.334Z,13.10
2019-01-04T13:24:00.891Z,11.53
2019-01-04T13:26:30.358Z,11.73
2019-01-04T13:29:00.176Z,16.70
2019-01-04T13:31:29.989Z,18.63
2019-01-04T13:34:00.235Z,17.65
2019-01-04T13:36:30.099Z,11.63
2019-01-04T13:39:00.006Z,15.93
2019-01-04T13:41:30.320Z,11.60
2019-01-04T13:44:00.145Z,17.63
2019-01-04T13:46:29.918Z,21.50
2019-01-04T13:48:59.446Z,22.10
2019-01-04T13:51:28.992Z,22.63
2019-01-04T13:53:58.798Z,21.53
2019-01-04T13:56:28.848Z,16.90
2019-01-04T13:58:58.767Z,22.00
2019-01-04T14:01:28.553Z,24.03
2019-01-04T14:03:58.356Z,20.15
2019-01-04T14:06:28.474Z,19.40
2019-01-04T14:08:58.589Z,20.33
2019-01-04T14:11:28.296Z,24.32
2019-01-04T14:13:59.416Z,24.40
2019-01-04T14:16:29.035Z,20.63
2019-01-04T14:18:59.246Z,15.57
2019-01-04T14:21:29.164Z,19.07
2019-01-04T14:23:59.045Z,18.77
2019-01-04T14:26:28.911Z,26.20
2019-01-04T14:28:58.444Z,24.37
2019-01-04T14:31:28.326Z,20.70
2019-01-04T14:33:57.863Z,26.77
2019-01-04T14:36:28.436Z,23.73
2019-01-04T14:38:57.988Z,26.80
2019-01-04T14:41:28.017Z,26.33
2019-01-04T14:43:57.850Z,24.07
2019-01-04T14:46:27.418Z,27.43
2019-01-04T14:48:58.039Z,21.77
2019-01-04T14:51:28.045Z,29.70
2019-01-04T14:53:57.869Z,26.97
2019-01-04T14:56:27.748Z,22.57
2019-01-04T14:58:57.364Z,27.77
2019-01-04T15:01:27.366Z,24.07
2019-01-04T15:03:57.695Z,26.07
2019-01-04T15:06:27.453Z,20.85
2019-01-04T15:08:57.662Z,25.43
2019-01-04T15:11:27.477Z,18.98
2019-01-04T15:13:57.796Z,22.37
2019-01-04T15:16:27.888Z,26.00
2019-01-04T15:18:57.495Z,24.73
2019-01-04T15:21:27.419Z,32.25
2019-01-04T15:23:57.740Z,22.53
2019-01-04T15:26:27.709Z,24.37
2019-01-04T15:28:57.766Z,23.85
2019-01-04T15:31:27.703Z,18.95
2019-01-04T15:33:58.070Z,21.97
2019-01-04T15:36:27.621Z,19.73
2019-01-04T15:38:57.531Z,15.57
2019-01-04T15:41:27.485Z,21.87
2019-01-04T15:43:57.861Z,23.67
2019-01-04T15:46:27.517Z,18.90
2019-01-04T15:48:57.821Z,18.73
2019-01-04T15:51:27.629Z,20.30
2019-01-04T15:53:57.737Z,18.80
2019-01-04T15:56:27.642Z,15.05
2019-01-04T15:58:57.850Z,17.73
2019-01-04T16:01:27.636Z,17.60
2019-01-04T16:03:57.562Z,22.20
2019-01-04T16:06:27.881Z,22.25
2019-01-04T16:08:57.688Z,18.10
2019-01-04T16:11:27.983Z,21.70
2019-01-04T16:13:58.919Z,16.10
2019-01-04T16:16:28.478Z,15.23
2019-01-04T16:18:58.023Z,16.40
2019-01-04T16:21:27.655Z,14.60
2019-01-04T16:23:57.572Z,22.05
2019-01-04T16:26:27.659Z,15.78
2019-01-04T16:28:57.588Z,21.13
2019-01-04T16:31:27.732Z,23.00
2019-01-04T16:33:57.906Z,23.33
2019-01-04T16:36:27.677Z,18.32
2019-01-04T16:38:57.695Z,17.53
2019-01-04T16:41:27.849Z,22.65
2019-01-04T16:43:59.601Z,20.95
2019-01-04T16:46:29.455Z,18.83
2019-01-04T16:48:58.928Z,22.53
2019-01-04T16:51:28.434Z,20.37
2019-01-04T16:53:58.260Z,26.87
2019-01-04T16:56:27.781Z,19.17
2019-01-04T16:58:58.017Z,19.67
2019-01-04T17:01:27.682Z,25.80
2019-01-04T17:03:57.775Z,21.75
2019-01-04T17:06:28.116Z,23.42
2019-01-04T17:08:58.294Z,26.52
2019-01-04T17:11:28.152Z,26.70
2019-01-04T17:13:59.139Z,23.70
2019-01-04T17:16:29.143Z,24.07
2019-01-04T17:18:58.951Z,19.05
2019-01-04T17:21:28.448Z,25.93
2019-01-04T17:23:58.301Z,24.07
2019-01-04T17:26:27.807Z,25.37
2019-01-04T17:28:58.128Z,23.93
2019-01-04T17:31:27.856Z,21.93
2019-01-04T17:34:00.323Z,28.50
2019-01-04T17:36:29.792Z,25.00
2019-01-04T17:38:59.971Z,18.80
2019-01-04T17:41:29.539Z,25.90
2019-01-04T17:43:59.527Z,23.53
2019-01-04T17:46:29.093Z,23.73
2019-01-04T17:48:58.859Z,25.33
2019-01-04T17:51:28.656Z,26.77
2019-01-04T17:53:58.209Z,27.97
2019-01-04T17:56:28.284Z,21.82
2019-01-04T17:58:58.552Z,22.45
2019-01-04T18:01:28.122Z,25.67
2019-01-04T18:03:58.360Z,24.70
2019-01-04T18:06:28.163Z,30.37
2019-01-04T18:08:59.029Z,26.93
2019-01-04T18:11:28.575Z,25.80
2019-01-04T18:13:58.791Z,26.43
2019-01-04T18:16:28.373Z,26.30
2019-01-04T18:18:58.956Z,26.80
2019-01-04T18:21:28.810Z,31.00
2019-01-04T18:23:58.590Z,26.07
2019-01-04T18:26:28.452Z,27.40
2019-01-04T18:28:58.116Z,29.27
2019-01-04T18:31:28.467Z,26.57
2019-01-04T18:33:58.415Z,31.93
2019-01-04T18:36:28.116Z,30.77
2019-01-04T18:38:58.073Z,33.58
2019-01-04T18:41:28.466Z,27.07
2019-01-04T18:43:58.293Z,28.05
2019-01-04T18:46:28.177Z,27.58
2019-01-04T18:48:58.247Z,25.23
2019-01-04T18:51:28.136Z,25.48
2019-01-04T18:53:58.274Z,25.92
2019-01-04T18:56:28.154Z,22.70
2019-01-04T18:58:58.099Z,21.67
2019-01-04T19:01:28.206Z,27.25
2019-01-04T19:03:58.226Z,20.45
2019-01-04T19:06:31.204Z,23.70
2019-01-04T19:09:00.873Z,22.20
2019-01-04T19:11:32.605Z,19.60
2019-01-04T19:14:03.141Z,23.47
2019-01-04T19:16:32.676Z,25.82
2019-01-04T19:19:02.760Z,23.15
2019-01-04T19:21:32.802Z,21.47
2019-01-04T19:24:02.620Z,19.43
2019-01-04T19:26:32.693Z,21.70
2019-01-04T19:29:02.787Z,17.93
2019-01-04T19:31:32.303Z,17.00
2019-01-04T19:34:01.885Z,19.87
2019-01-04T19:36:31.424Z,18.03
2019-01-04T19:39:00.984Z,18.07
2019-01-04T19:41:30.724Z,20.13
2019-01-04T19:44:00.239Z,18.00
2019-01-04T19:46:30.146Z,15.43
2019-01-04T19:49:00.205Z,18.30
2019-01-04T19:51:30.004Z,15.20
2019-01-04T19:53:59.807Z,20.17
2019-01-04T19:56:30.033Z,19.20
2019-01-04T19:58:59.549Z,16.63
2019-01-04T20:01:29.102Z,21.27
2019-01-04T20:03:58.603Z,21.03
2019-01-04T20:07:15.990Z,25.00
2019-01-04T20:10:56.317Z,15.30
2019-01-04T20:14:31.289Z,19.43
2019-01-04T20:17:22.652Z,14.00
2019-01-04T20:20:07.315Z,18.97
2019-01-04T20:23:06.801Z,18.37
2019-01-04T20:25:49.581Z,19.47
2019-01-04T20:28:30.204Z,20.47
2019-01-04T20:31:19.996Z,15.53
2019-01-04T20:34:12.557Z,20.57
2019-01-04T20:36:56.251Z,17.92
2019-01-04T20:39:38.606Z,21.73
2019-01-04T20:42:26.687Z,21.07
2019-01-04T20:45:14.153Z,15.13
2019-01-04T20:48:02.395Z,18.77
2019-01-04T20:51:09.259Z,22.50
2019-01-04T20:54:14.295Z,22.13
2019-01-04T20:57:05.742Z,19.23
2019-01-04T20:59:56.687Z,19.40
2019-01-04T21:02:39.608Z,20.97
2019-01-04T21:05:40.690Z,23.38
2019-01-04T21:08:38.074Z,26.75
2019-01-04T21:11:25.405Z,19.92
2019-01-04T21:14:13.030Z,24.27
2019-01-04T21:17:00.267Z,19.40
2019-01-04T21:19:47.312Z,16.53
2019-01-04T21:22:42.070Z,17.27
2019-01-04T21:25:42.542Z,25.17
2019-01-04T21:28:29.696Z,22.63
2019-01-04T21:31:17.948Z,20.10
2019-01-04T21:34:15.715Z,18.33
2019-01-04T21:37:11.000Z,20.27
2019-01-04T21:39:59.926Z,27.20
2019-01-04T21:42:47.229Z,19.67
2019-01-04T21:45:39.525Z,28.30
2019-01-04T21:48:33.703Z,25.90
2019-01-04T21:51:20.845Z,26.57
2019-01-04T21:54:11.993Z,19.25
2019-01-04T21:57:04.426Z,22.98
2019-01-04T22:00:11.278Z,29.40
2019-01-04T22:02:59.955Z,22.17
2019-01-04T22:06:00.788Z,25.70
2019-01-04T22:08:43.495Z,21.13
2019-01-04T22:11:25.415Z,26.75
2019-01-04T22:14:17.429Z,25.67
2019-01-04T22:17:06.042Z,24.23
2019-01-04T22:20:04.355Z,20.55
2019-01-04T22:23:11.599Z,26.20
2019-01-04T22:25:59.523Z,29.30
2019-01-04T22:28:48.098Z,21.77
2019-01-04T22:31:40.595Z,21.33
2019-01-04T22:34:46.177Z,23.07
2019-01-04T22:37:43.050Z,25.23
2019-01-04T22:40:29.631Z,25.77
2019-01-04T22:43:17.229Z,26.27
2019-01-04T22:46:04.881Z,27.57
2019-01-04T22:49:05.463Z,23.65
2019-01-04T22:51:56.470Z,21.27
2019-01-04T22:54:48.304Z,23.17
2019-01-04T22:57:40.649Z,23.07
2019-01-04T23:00:50.038Z,22.90
2019-01-04T23:03:50.605Z,18.40
2019-01-04T23:06:37.781Z,22.33
2019-01-04T23:09:26.980Z,22.40
2019-01-04T23:12:21.326Z,18.73
2019-01-04T23:15:05.536Z,25.00
2019-01-04T23:17:53.084Z,16.20
2019-01-04T23:20:36.885Z,21.07
2019-01-04T23:23:22.210Z,20.23
2019-01-04T23:26:29.445Z,20.63
2019-01-04T23:29:15.927Z,19.07
2019-01-04T23:32:13.567Z,20.27
2019-01-04T23:35:01.098Z,20.43
2019-01-04T23:38:02.058Z,21.37
2019-01-04T23:40:52.931Z,15.87
2019-01-04T23:43:42.158Z,24.43
2019-01-04T23:46:24.217Z,17.33
2019-01-04T23:49:08.475Z,20.53
2019-01-04T23:51:53.958Z,18.17
2019-01-04T23:54:41.227Z,21.53
2019-01-04T23:57:30.015Z,14.30
